Time;durP1;ratioP1;P1;durP2;ratioP2;P2;SDS_P1;SDS_P2;PMS_P1;PMS_P2;Temp;Humidity;BMP_temperature;BMP_pressure;BME280_temperature;BME280_humidity;BME280_pressure;Samples;Min_cycle;Max_cycle;Signal;HPM_P1;HPM_P2
2021/01/16 00:00:25;;;;;;;;;;;;;;;21.76;22.49;97679.56;5143427;27;1059;-78
2021/01/16 00:02:50;;;;;;;;;;;;;;;21.94;22.08;97676.16;5126734;28;622;-78
2021/01/16 00:05:19;;;;;;;;;;;;;;;21.79;22.28;97681.47;5126699;28;1543;-78
2021/01/16 00:07:45;;;;;;;;;;;;;;;21.59;22.59;97678.09;5143340;27;670;-78
2021/01/16 00:10:11;;;;;;;;;;;;;;;21.83;22.40;97682.16;5142734;27;1066;-78
2021/01/16 00:12:37;;;;;;;;;;;;;;;22.41;21.45;97683.09;5143139;27;838;-78
2021/01/16 00:15:03;;;;;;;;;;;;;;;22.38;21.65;97678.34;5126819;28;1514;-79
2021/01/16 00:17:28;;;;;;;;;;;;;;;22.05;21.95;97687.13;5126793;28;1972;-78
2021/01/16 00:19:54;;;;;;;;;;;;;;;22.03;21.94;97676.25;5126079;28;710;-78
2021/01/16 00:22:19;;;;;;;;;;;;;;;22.14;22.00;97670.25;5127014;28;725;-78
2021/01/16 00:24:45;;;;;;;;;;;;;;;22.23;21.88;97687.34;5125192;28;1523;-79
2021/01/16 00:27:10;;;;;;;;;;;;;;;21.87;22.13;97675.59;5126346;28;1621;-78
2021/01/16 00:29:35;;;;;;;;;;;;;;;21.59;22.76;97683.75;5125960;28;841;-78
2021/01/16 00:32:01;;;;;;;;;;;;;;;22.08;22.07;97700.38;5126733;28;598;-78
2021/01/16 00:34:26;;;;;;;;;;;;;;;21.79;22.56;97675.81;5126489;28;701;-79
2021/01/16 00:36:52;;;;;;;;;;;;;;;22.20;21.77;97682.59;5126323;28;1898;-78
2021/01/16 00:39:17;;;;;;;;;;;;;;;22.31;21.76;97671.66;5125345;28;1526;-78
2021/01/16 00:41:43;;;;;;;;;;;;;;;22.22;21.95;97667.94;5126158;28;854;-78
2021/01/16 00:44:08;;;;;;;;;;;;;;;21.78;22.54;97685.56;5124868;28;859;-79
2021/01/16 00:46:34;;;;;;;;;;;;;;;22.04;21.97;97679.88;5126455;28;1527;-79
2021/01/16 00:48:59;;;;;;;;;;;;;;;22.28;21.87;97666.94;5125187;28;649;-78
2021/01/16 00:51:25;;;;;;;;;;;;;;;22.08;22.31;97672.84;5125181;28;1186;-79
2021/01/16 00:53:50;;;;;;;;;;;;;;;22.58;21.84;97673.16;5125197;28;845;-78
2021/01/16 00:56:16;;;;;;;;;;;;;;;21.97;22.31;97668.78;5105096;28;1977;-79
2021/01/16 00:58:54;;;;;;;;;;;;;;;22.44;21.72;97665.19;5104323;28;1294;-78
2021/01/16 01:01:39;;;;;;;;;;;;;;;22.04;22.26;97666.50;5105063;28;1202;-78
2021/01/16 01:04:06;;;;;;;;;;;;;;;22.09;22.28;97665.91;5104684;28;598;-79
2021/01/16 01:06:32;;;;;;;;;;;;;;;22.06;22.33;97660.38;5105624;28;605;-78
2021/01/16 01:08:57;;;;;;;;;;;;;;;22.14;22.05;97656.09;5103883;28;1479;-79
2021/01/16 01:11:23;;;;;;;;;;;;;;;21.96;22.51;97650.19;5105593;28;812;-78
2021/01/16 01:13:51;;;;;;;;;;;;;;;21.79;22.75;97653.16;5104198;28;820;-79
2021/01/16 01:16:16;;;;;;;;;;;;;;;21.95;22.48;97646.56;5105502;28;1883;-79
2021/01/16 01:18:42;;;;;;;;;;;;;;;21.95;22.31;97634.44;5104089;28;1502;-79
2021/01/16 01:21:07;;;;;;;;;;;;;;;22.08;22.39;97623.88;5105791;28;678;-79
2021/01/16 01:23:33;;;;;;;;;;;;;;;22.28;21.84;97627.25;5103900;28;973;-79
2021/01/16 01:25:58;;;;;;;;;;;;;;;22.35;21.91;97631.88;5105186;28;867;-78
2021/01/16 01:28:24;;;;;;;;;;;;;;;22.53;21.72;97632.00;5103627;28;1443;-78
2021/01/16 01:30:49;;;;;;;;;;;;;;;22.06;22.49;97626.38;5105677;28;1578;-79
2021/01/16 01:33:15;;;;;;;;;;;;;;;21.79;22.81;97627.66;5104101;28;677;-79
2021/01/16 01:35:40;;;;;;;;;;;;;;;22.33;21.85;97635.19;5104194;28;633;-78
2021/01/16 01:38:06;;;;;;;;;;;;;;;22.63;21.64;97624.38;5102814;28;1906;-78
2021/01/16 01:40:31;;;;;;;;;;;;;;;22.59;21.60;97635.06;5103952;28;1501;-78
2021/01/16 01:42:57;;;;;;;;;;;;;;;22.46;21.83;97631.50;5104023;28;1569;-78
2021/01/16 01:45:22;;;;;;;;;;;;;;;22.08;22.35;97618.22;5104679;28;677;-78
2021/01/16 01:47:48;;;;;;;;;;;;;;;21.99;22.34;97609.63;5103670;28;646;-78
2021/01/16 01:50:14;;;;;;;;;;;;;;;22.26;21.87;97618.41;5103228;28;1464;-78
2021/01/16 01:52:39;;;;;;;;;;;;;;;22.28;22.01;97618.75;5104003;28;925;-78
2021/01/16 01:55:06;;;;;;;;;;;;;;;22.61;21.59;97615.53;5112987;28;1103;-78
2021/01/16 01:57:36;;;;;;;;;;;;;;;22.90;21.34;97618.16;5106856;28;1906;-78
2021/01/16 02:00:08;;;;;;;;;;;;;;;22.45;22.07;97624.25;5123882;28;1566;-78
2021/01/16 02:02:41;;;;;;;;;;;;;;;21.90;22.53;97612.34;5124604;28;1491;-78
2021/01/16 02:05:06;;;;;;;;;;;;;;;22.20;22.18;97613.78;5106713;28;606;-79
2021/01/16 02:07:38;;;;;;;;;;;;;;;22.24;22.29;97609.59;5106780;28;1476;-78
2021/01/16 02:10:07;;;;;;;;;;;;;;;22.40;22.08;97622.78;5106694;28;879;-79
2021/01/16 02:12:33;;;;;;;;;;;;;;;22.67;21.84;97613.69;5107260;28;689;-78
2021/01/16 02:15:08;;;;;;;;;;;;;;;22.12;22.63;97613.22;5123865;28;669;-79
2021/01/16 02:17:34;;;;;;;;;;;;;;;21.87;22.42;97618.94;5124233;28;1901;-79
2021/01/16 02:20:07;;;;;;;;;;;;;;;22.22;22.61;97617.72;5140503;28;680;-78
2021/01/16 02:22:35;;;;;;;;;;;;;;;22.74;21.49;97607.78;5124332;28;939;-79
2021/01/16 02:25:06;;;;;;;;;;;;;;;22.45;22.04;97601.56;5140596;28;900;-78
2021/01/16 02:27:35;;;;;;;;;;;;;;;22.31;22.28;97597.19;5140742;28;1605;-78
2021/01/16 02:30:02;;;;;;;;;;;;;;;22.02;22.51;97594.53;5140032;27;749;-79
2021/01/16 02:32:27;;;;;;;;;;;;;;;22.32;21.95;97599.56;5141003;28;841;-79
2021/01/16 02:34:52;;;;;;;;;;;;;;;22.52;21.96;97612.63;5123868;28;689;-78
2021/01/16 02:37:18;;;;;;;;;;;;;;;22.59;21.97;97606.72;5124199;28;1897;-79
2021/01/16 02:39:46;;;;;;;;;;;;;;;22.01;22.36;97604.28;5122973;28;1539;-78
2021/01/16 02:42:12;;;;;;;;;;;;;;;22.51;21.60;97605.38;5141165;27;823;-78
2021/01/16 02:44:37;;;;;;;;;;;;;;;21.95;22.66;97592.75;5123318;28;605;-79
2021/01/16 02:47:21;;;;;;;;;;;;;;;22.07;22.41;97599.63;5124588;28;601;-79
2021/01/16 02:49:51;;;;;;;;;;;;;;;22.00;22.48;97591.38;5123343;28;1506;-78
2021/01/16 02:52:18;;;;;;;;;;;;;;;22.68;21.48;97592.59;5124150;28;966;-78
2021/01/16 02:54:43;;;;;;;;;;;;;;;22.36;21.78;97596.59;5105312;28;965;-79
2021/01/16 02:57:09;;;;;;;;;;;;;;;22.24;22.15;97598.25;5124164;28;1966;-78
2021/01/16 02:59:44;;;;;;;;;;;;;;;21.96;22.48;97593.53;5123537;28;1396;-78
2021/01/16 03:02:10;;;;;;;;;;;;;;;21.97;22.37;97581.75;5086393;28;630;-79
2021/01/16 03:04:36;;;;;;;;;;;;;;;22.53;21.60;97574.50;5102900;28;712;-78
2021/01/16 03:07:01;;;;;;;;;;;;;;;22.49;21.76;97574.66;5122137;28;872;-79
2021/01/16 03:09:27;;;;;;;;;;;;;;;22.33;21.82;97567.16;5124185;28;1547;-78
2021/01/16 03:11:53;;;;;;;;;;;;;;;22.20;21.95;97574.91;5110094;28;1704;-78
2021/01/16 03:14:18;;;;;;;;;;;;;;;22.16;22.24;97574.22;5127409;28;655;-78
2021/01/16 03:16:49;;;;;;;;;;;;;;;21.81;22.28;97579.88;5128023;28;2015;-78
2021/01/16 03:19:14;;;;;;;;;;;;;;;22.39;21.61;97575.06;5143536;27;688;-78
2021/01/16 03:21:40;;;;;;;;;;;;;;;22.23;21.87;97568.31;5142946;27;1482;-79
2021/01/16 03:24:06;;;;;;;;;;;;;;;22.81;21.09;97579.13;5127458;28;915;-79
2021/01/16 03:26:31;;;;;;;;;;;;;;;22.08;21.98;97570.06;5127829;28;1412;-78
2021/01/16 03:28:57;;;;;;;;;;;;;;;22.57;21.39;97561.00;5126802;28;1550;-78
2021/01/16 03:31:22;;;;;;;;;;;;;;;22.46;21.84;97569.13;5127487;28;723;-78
2021/01/16 03:33:47;;;;;;;;;;;;;;;22.01;22.07;97567.44;5125479;28;653;-78
2021/01/16 03:36:13;;;;;;;;;;;;;;;22.20;22.31;97571.28;5126734;28;1878;-78
2021/01/16 03:38:38;;;;;;;;;;;;;;;22.38;21.85;97567.78;5125176;28;1467;-78
2021/01/16 03:41:04;;;;;;;;;;;;;;;22.24;21.78;97574.78;5127520;28;1491;-78
2021/01/16 03:43:29;;;;;;;;;;;;;;;22.90;21.21;97580.44;5125811;28;710;-78
2021/01/16 03:45:55;;;;;;;;;;;;;;;22.13;22.01;97578.00;5126587;28;1573;-77
2021/01/16 03:48:20;;;;;;;;;;;;;;;22.60;21.38;97571.44;5125511;28;705;-78
2021/01/16 03:50:45;;;;;;;;;;;;;;;22.38;21.77;97579.91;5126657;28;1020;-78
2021/01/16 03:53:11;;;;;;;;;;;;;;;21.80;22.46;97578.28;5125699;28;842;-78
2021/01/16 03:55:36;;;;;;;;;;;;;;;22.02;22.10;97577.53;5126297;28;1079;-78
2021/01/16 03:58:02;;;;;;;;;;;;;;;22.59;21.51;97579.16;5125300;28;1917;-78
2021/01/16 04:00:27;;;;;;;;;;;;;;;22.04;22.20;97577.88;5125952;28;656;-78
2021/01/16 04:02:53;;;;;;;;;;;;;;;22.29;21.97;97577.03;5125657;28;629;-78
2021/01/16 04:05:18;;;;;;;;;;;;;;;22.68;21.19;97571.94;5125380;28;1452;-78
2021/01/16 04:07:47;;;;;;;;;;;;;;;22.05;22.21;97579.47;5125460;28;1542;-78
2021/01/16 04:10:13;;;;;;;;;;;;;;;22.24;21.85;97578.41;5125624;28;861;-78
2021/01/16 04:12:38;;;;;;;;;;;;;;;22.19;21.73;97579.00;5125869;28;670;-78
2021/01/16 04:15:04;;;;;;;;;;;;;;;22.62;21.34;97581.03;5125639;28;657;-78
2021/01/16 04:17:29;;;;;;;;;;;;;;;22.49;21.40;97573.88;5125433;28;1972;-78
2021/01/16 04:19:55;;;;;;;;;;;;;;;22.33;21.72;97577.69;5124693;28;1562;-78
2021/01/16 04:22:20;;;;;;;;;;;;;;;22.43;21.45;97575.69;5125637;28;1483;-78
2021/01/16 04:24:46;;;;;;;;;;;;;;;21.82;22.27;97575.78;5125246;28;902;-78
2021/01/16 04:27:11;;;;;;;;;;;;;;;22.65;21.56;97576.50;5125629;28;725;-77
2021/01/16 04:29:37;;;;;;;;;;;;;;;22.06;22.12;97575.38;5125259;28;708;-77
2021/01/16 04:32:02;;;;;;;;;;;;;;;22.80;21.17;97580.38;5125470;28;609;-78
2021/01/16 04:34:28;;;;;;;;;;;;;;;22.55;21.50;97566.34;5124354;28;1106;-78
2021/01/16 04:36:53;;;;;;;;;;;;;;;22.29;21.87;97566.47;5125048;28;1902;-77
2021/01/16 04:39:19;;;;;;;;;;;;;;;22.35;21.71;97558.19;5124761;28;857;-78
2021/01/16 04:41:45;;;;;;;;;;;;;;;22.55;21.34;97567.16;5125769;28;668;-78
2021/01/16 04:44:10;;;;;;;;;;;;;;;22.61;21.41;97558.84;5124678;28;609;-78
2021/01/16 04:46:36;;;;;;;;;;;;;;;22.71;21.46;97551.97;5141829;27;1245;-78
2021/01/16 04:49:02;;;;;;;;;;;;;;;23.02;20.94;97582.44;5124197;28;848;-78
2021/01/16 04:51:30;;;;;;;;;;;;;;;22.29;21.81;97555.16;5125502;28;957;-78
2021/01/16 04:53:55;;;;;;;;;;;;;;;22.20;21.57;97557.91;5124128;28;1034;-78
2021/01/16 04:56:21;;;;;;;;;;;;;;;22.28;21.69;97556.41;5124948;28;1937;-77
2021/01/16 04:58:46;;;;;;;;;;;;;;;22.58;21.48;97556.91;5123248;28;1104;-78
2021/01/16 05:01:11;;;;;;;;;;;;;;;22.56;21.35;97548.09;5124832;28;613;-77
2021/01/16 05:03:38;;;;;;;;;;;;;;;22.52;21.49;97539.69;5123712;28;668;-78
2021/01/16 05:06:07;;;;;;;;;;;;;;;22.17;21.77;97544.63;5125071;28;1059;-77
2021/01/16 05:08:34;;;;;;;;;;;;;;;22.30;21.87;97545.38;5123159;28;1167;-78
2021/01/16 05:10:59;;;;;;;;;;;;;;;22.63;21.14;97539.28;5125109;28;976;-78
2021/01/16 05:13:29;;;;;;;;;;;;;;;21.92;21.95;97544.72;5139904;27;689;-78
2021/01/16 05:15:55;;;;;;;;;;;;;;;22.33;21.69;97538.03;5141182;27;693;-78
2021/01/16 05:18:20;;;;;;;;;;;;;;;22.23;21.83;97540.00;5139714;27;1902;-77
2021/01/16 05:20:46;;;;;;;;;;;;;;;22.58;21.06;97542.72;5124492;28;926;-78
2021/01/16 05:23:12;;;;;;;;;;;;;;;22.35;21.68;97547.63;5123595;28;888;-78
2021/01/16 05:25:41;;;;;;;;;;;;;;;22.41;21.20;97538.53;5124430;28;871;-78
2021/01/16 05:28:06;;;;;;;;;;;;;;;22.58;21.11;97548.41;5124026;28;638;-78
2021/01/16 05:30:42;;;;;;;;;;;;;;;22.53;21.27;97546.16;5140515;27;634;-79
2021/01/16 05:33:08;;;;;;;;;;;;;;;22.41;21.42;97544.19;5122350;28;681;-78
2021/01/16 05:35:34;;;;;;;;;;;;;;;22.61;21.20;97547.50;5124181;28;924;-78
2021/01/16 05:37:59;;;;;;;;;;;;;;;21.90;21.68;97547.22;5139553;27;1902;-78
2021/01/16 05:40:25;;;;;;;;;;;;;;;22.53;21.17;97541.28;5123819;28;969;-77
2021/01/16 05:42:50;;;;;;;;;;;;;;;22.08;21.79;97538.88;5140470;27;590;-78
2021/01/16 05:45:15;;;;;;;;;;;;;;;22.56;21.14;97542.41;5139914;27;649;-78
2021/01/16 05:47:42;;;;;;;;;;;;;;;21.97;21.68;97549.81;5123632;28;617;-78
2021/01/16 05:50:08;;;;;;;;;;;;;;;22.26;21.38;97544.72;5139592;27;657;-78
2021/01/16 05:52:34;;;;;;;;;;;;;;;21.88;21.84;97552.56;5123235;28;932;-78
2021/01/16 05:54:59;;;;;;;;;;;;;;;22.30;21.42;97556.72;5138970;27;991;-77
2021/01/16 05:57:25;;;;;;;;;;;;;;;22.30;21.36;97547.44;5123761;28;1905;-78
2021/01/16 05:59:59;;;;;;;;;;;;;;;22.11;21.35;97543.66;5139338;27;984;-77
2021/01/16 06:02:31;;;;;;;;;;;;;;;22.04;21.55;97549.56;5123376;28;712;-78
2021/01/16 06:04:57;;;;;;;;;;;;;;;22.18;21.37;97560.41;5122963;28;700;-78
2021/01/16 06:07:22;;;;;;;;;;;;;;;22.47;21.36;97548.00;5123324;28;948;-78
2021/01/16 06:09:49;;;;;;;;;;;;;;;22.22;21.71;97544.06;5122596;28;844;-78
2021/01/16 06:12:15;;;;;;;;;;;;;;;22.69;20.84;97548.81;5123491;28;991;-77
2021/01/16 06:14:43;;;;;;;;;;;;;;;22.35;21.33;97550.47;5138618;27;630;-78
2021/01/16 06:17:18;;;;;;;;;;;;;;;22.39;21.32;97541.84;5123584;28;1938;-78
2021/01/16 06:19:44;;;;;;;;;;;;;;;22.63;21.38;97547.81;5122383;28;769;-78
2021/01/16 06:22:10;;;;;;;;;;;;;;;22.20;21.70;97543.72;5123124;28;894;-78
2021/01/16 06:24:36;;;;;;;;;;;;;;;22.01;21.95;97539.91;5138623;28;668;-78
2021/01/16 06:27:02;;;;;;;;;;;;;;;22.01;21.77;97539.91;5123119;28;663;-78
2021/01/16 06:29:34;;;;;;;;;;;;;;;22.53;20.97;97543.31;5122241;28;640;-77
2021/01/16 06:32:17;;;;;;;;;;;;;;;22.32;21.46;97548.53;5123282;28;618;-78
2021/01/16 06:34:43;;;;;;;;;;;;;;;22.12;21.64;97550.88;5121391;28;1036;-77
2021/01/16 06:37:09;;;;;;;;;;;;;;;21.89;21.32;97556.97;5122396;28;1994;-78
2021/01/16 06:39:39;;;;;;;;;;;;;;;22.52;20.89;97553.09;5122433;28;1166;-78
2021/01/16 06:42:14;;;;;;;;;;;;;;;22.50;20.89;97547.09;5123519;28;1149;-78
2021/01/16 06:44:40;;;;;;;;;;;;;;;22.32;21.01;97554.22;5108790;28;1324;-78
2021/01/16 06:47:06;;;;;;;;;;;;;;;22.55;20.75;97566.34;5126992;28;1153;-78
2021/01/16 06:49:32;;;;;;;;;;;;;;;22.54;21.02;97564.78;5125847;28;1228;-78
2021/01/16 06:52:01;;;;;;;;;;;;;;;22.35;20.95;97558.19;5109138;28;1169;-78
2021/01/16 06:54:29;;;;;;;;;;;;;;;22.76;20.55;97565.53;5125818;28;1133;-78
2021/01/16 06:57:02;;;;;;;;;;;;;;;22.65;20.70;97565.16;5109444;28;1910;-78
2021/01/16 06:59:28;;;;;;;;;;;;;;;22.35;21.31;97570.31;5124394;28;1078;-78
2021/01/16 07:01:53;;;;;;;;;;;;;;;22.36;21.06;97574.72;5126683;28;1276;-78
2021/01/16 07:04:19;;;;;;;;;;;;;;;22.55;21.21;97577.69;5108269;28;1364;-78
2021/01/16 07:06:51;;;;;;;;;;;;;;;22.70;20.62;97578.75;5109080;28;1193;-78
2021/01/16 07:09:18;;;;;;;;;;;;;;;22.96;20.43;97576.56;5108829;28;1205;-78
2021/01/16 07:11:45;;;;;;;;;;;;;;;22.90;20.35;97586.94;5126603;28;1129;-78
2021/01/16 07:14:11;;;;;;;;;;;;;;;22.68;20.96;97586.91;5125383;27;1146;-78
2021/01/16 07:16:36;;;;;;;;;;;;;;;22.09;21.68;97585.78;5125989;28;1902;-78
2021/01/16 07:19:02;;;;;;;;;;;;;;;20.28;21.95;97321.81;5125694;28;1185;-78
2021/01/16 07:21:30;;;;;;;;;;;;;;;22.17;21.66;97584.31;5126972;28;1161;-78
2021/01/16 07:23:56;;;;;;;;;;;;;;;21.97;21.92;97595.13;5125788;28;1279;-77
2021/01/16 07:26:21;;;;;;;;;;;;;;;21.98;21.81;97594.66;5126457;28;1252;-78
2021/01/16 07:28:49;;;;;;;;;;;;;;;22.49;21.18;97590.88;5125078;28;1260;-78
2021/01/16 07:31:14;;;;;;;;;;;;;;;22.26;21.27;97584.41;5126141;28;1232;-78
2021/01/16 07:33:40;;;;;;;;;;;;;;;21.58;22.15;97591.56;5106829;28;1228;-78
2021/01/16 07:36:05;;;;;;;;;;;;;;;22.46;21.32;97591.81;5125487;27;1321;-78
2021/01/16 07:38:31;;;;;;;;;;;;;;;22.00;21.83;97585.72;5106577;28;1906;-76
2021/01/16 07:40:57;;;;;;;;;;;;;;;22.04;21.97;97592.03;5125088;28;1185;-78
2021/01/16 07:43:25;;;;;;;;;;;;;;;22.25;21.41;97593.38;5124421;28;1268;-78
2021/01/16 07:45:50;;;;;;;;;;;;;;;22.67;21.29;97585.34;5126180;28;1149;-78
2021/01/16 07:48:19;;;;;;;;;;;;;;;22.31;21.26;97592.31;5107240;28;1217;-78
2021/01/16 07:50:47;;;;;;;;;;;;;;;21.92;21.78;97581.56;5108688;28;1169;-78
2021/01/16 07:53:13;;;;;;;;;;;;;;;22.21;21.38;97593.47;5106535;28;1217;-79
2021/01/16 07:55:38;;;;;;;;;;;;;;;21.99;21.80;97599.09;5107913;28;1205;-78
2021/01/16 07:58:16;;;;;;;;;;;;;;;21.77;21.81;97587.69;5124863;28;1909;-78
2021/01/16 08:00:44;;;;;;;;;;;;;;;22.19;21.78;97596.00;5125746;28;1367;-78
2021/01/16 08:03:12;;;;;;;;;;;;;;;22.18;21.49;97588.75;5107034;28;1182;-78
2021/01/16 08:05:38;;;;;;;;;;;;;;;22.29;21.55;97594.81;5126124;28;704;-78
2021/01/16 08:08:10;;;;;;;;;;;;;;;22.07;21.62;97597.59;5125167;28;661;-77
2021/01/16 08:10:35;;;;;;;;;;;;;;;22.12;21.88;97598.28;5125274;28;1094;-78
2021/01/16 08:13:01;;;;;;;;;;;;;;;22.53;21.23;97597.97;5103981;28;1135;-78
2021/01/16 08:15:30;;;;;;;;;;;;;;;22.10;21.53;97587.38;5107694;28;1137;-78
2021/01/16 08:17:57;;;;;;;;;;;;;;;22.21;21.56;97592.69;5125139;28;1898;-78
2021/01/16 08:20:29;;;;;;;;;;;;;;;22.49;21.04;97580.34;5125373;28;1192;-78
2021/01/16 08:22:55;;;;;;;;;;;;;;;21.96;21.89;97582.19;5124813;28;1146;-78
2021/01/16 08:25:22;;;;;;;;;;;;;;;21.96;21.77;97588.66;5107237;28;1134;-78
2021/01/16 08:27:48;;;;;;;;;;;;;;;22.07;21.79;97582.63;5124811;28;1169;-78
2021/01/16 08:30:15;;;;;;;;;;;;;;;22.48;21.21;97577.94;5106339;28;1162;-78
2021/01/16 08:32:52;;;;;;;;;;;;;;;22.30;21.41;97570.91;5125354;28;1299;-78
2021/01/16 08:35:25;;;;;;;;;;;;;;;22.83;20.83;97568.09;5124733;28;1153;-78
2021/01/16 08:37:50;;;;;;;;;;;;;;;22.43;21.19;97575.69;5106910;28;1967;-77
2021/01/16 08:40:30;;;;;;;;;;;;;;;22.09;21.71;97568.81;5124476;28;1150;-78
2021/01/16 08:42:55;;;;;;;;;;;;;;;22.48;21.52;97575.09;5124547;28;1177;-78
2021/01/16 08:45:21;;;;;;;;;;;;;;;22.22;21.63;97572.38;5124968;28;1138;-78
2021/01/16 08:47:54;;;;;;;;;;;;;;;22.04;21.68;97577.88;5124686;28;1121;-78
2021/01/16 08:50:27;;;;;;;;;;;;;;;22.44;21.63;97571.63;5107510;28;1117;-78
2021/01/16 08:52:52;;;;;;;;;;;;;;;21.98;22.16;97568.38;5124265;28;1259;-78
2021/01/16 08:55:18;;;;;;;;;;;;;;;22.20;21.58;97572.06;5124036;28;1358;-78
2021/01/16 08:57:43;;;;;;;;;;;;;;;22.40;21.50;97559.63;5106343;28;1967;-78
2021/01/16 09:00:18;;;;;;;;;;;;;;;22.23;21.58;97551.31;5124012;28;1118;-78
2021/01/16 09:03:03;;;;;;;;;;;;;;;22.74;21.24;97551.06;5107804;28;1244;-78
2021/01/16 09:05:30;;;;;;;;;;;;;;;21.98;21.92;97554.22;5122673;28;1119;-78
2021/01/16 09:07:55;;;;;;;;;;;;;;;21.57;22.33;97547.53;5123515;28;1774;-79
2021/01/16 09:10:22;;;;;;;;;;;;;;;22.42;21.26;97548.59;5089723;28;1268;-78
2021/01/16 09:12:47;;;;;;;;;;;;;;;22.23;21.65;97545.66;5124533;28;1121;-78
2021/01/16 09:15:17;;;;;;;;;;;;;;;22.43;21.56;97555.84;5105922;28;1214;-78
2021/01/16 09:18:00;;;;;;;;;;;;;;;22.39;21.41;97549.56;5089807;28;1976;-78
2021/01/16 09:20:25;;;;;;;;;;;;;;;22.23;21.51;97545.66;5105907;28;1205;-78
2021/01/16 09:22:51;;;;;;;;;;;;;;;22.19;21.62;97539.31;5105778;28;1209;-78
2021/01/16 09:25:22;;;;;;;;;;;;;;;22.01;22.08;97537.06;5123668;28;1201;-78
2021/01/16 09:27:48;;;;;;;;;;;;;;;21.87;22.01;97534.00;5124187;28;1204;-78
2021/01/16 09:30:27;;;;;;;;;;;;;;;22.00;21.74;97527.00;5106037;28;1237;-78
2021/01/16 09:32:53;;;;;;;;;;;;;;;22.32;21.71;97530.75;5123656;28;1256;-77
2021/01/16 09:35:40;;;;;;;;;;;;;;;22.24;21.53;97524.56;5123210;28;1355;-78
2021/01/16 09:38:25;;;;;;;;;;;;;;;21.83;22.13;97523.56;5106216;28;1917;-78
2021/01/16 09:40:51;;;;;;;;;;;;;;;22.47;21.51;97508.31;5116779;28;1114;-78
2021/01/16 09:43:17;;;;;;;;;;;;;;;22.19;21.64;97499.66;5122876;28;1267;-78
2021/01/16 09:45:50;;;;;;;;;;;;;;;22.26;21.51;97496.53;5089194;28;1288;-79
2021/01/16 09:48:31;;;;;;;;;;;;;;;22.44;21.36;97497.94;5123485;28;620;-78
2021/01/16 09:50:57;;;;;;;;;;;;;;;22.19;21.62;97493.97;5124698;28;645;-78
2021/01/16 09:53:23;;;;;;;;;;;;;;;22.82;20.86;97487.09;5123196;28;962;-78
2021/01/16 09:55:48;;;;;;;;;;;;;;;22.44;21.33;97487.38;5106658;28;1217;-78
2021/01/16 09:58:35;;;;;;;;;;;;;;;22.21;21.69;97480.13;5122855;28;1913;-78
2021/01/16 10:01:19;;;;;;;;;;;;;;;22.61;21.38;97485.91;5107643;28;684;-78
2021/01/16 10:03:45;;;;;;;;;;;;;;;22.58;21.39;97481.13;5122886;28;620;-78
2021/01/16 10:06:17;;;;;;;;;;;;;;;22.34;21.69;97488.56;5123971;28;724;-78
2021/01/16 10:08:42;;;;;;;;;;;;;;;22.30;21.65;97477.38;5104342;28;1146;-76
2021/01/16 10:11:08;;;;;;;;;;;;;;;22.22;21.62;97481.72;5102820;28;1242;-79
2021/01/16 10:13:34;;;;;;;;;;;;;;;22.82;21.07;97484.25;5125240;28;1147;-80
2021/01/16 10:16:00;;;;;;;;;;;;;;;22.27;21.44;97472.59;5136448;27;1275;-79
2021/01/16 10:18:27;;;;;;;;;;;;;;;22.50;21.42;97470.56;5107099;28;1898;-78
2021/01/16 10:21:11;;;;;;;;;;;;;;;22.23;21.50;97462.69;5100511;28;1116;-75
2021/01/16 10:23:40;;;;;;;;;;;;;;;22.46;21.16;97455.72;5117707;28;1076;-74
2021/01/16 10:26:06;;;;;;;;;;;;;;;22.18;21.76;97457.63;5120892;28;1189;-76
2021/01/16 10:28:33;;;;;;;;;;;;;;;22.43;21.43;97448.13;5121347;28;1262;-78
2021/01/16 10:30:59;;;;;;;;;;;;;;;22.25;21.33;97441.13;5122602;28;1235;-76
2021/01/16 10:33:25;;;;;;;;;;;;;;;22.41;21.26;97436.47;5117311;28;1124;-77
2021/01/16 10:35:51;;;;;;;;;;;;;;;22.16;21.79;97443.09;5131144;28;1246;-78
2021/01/16 10:38:35;;;;;;;;;;;;;;;22.11;21.33;97435.97;5121082;28;1906;-77
2021/01/16 10:41:00;;;;;;;;;;;;;;;22.66;21.10;97436.28;5122693;28;1298;-78
2021/01/16 10:43:28;;;;;;;;;;;;;;;22.32;21.51;97412.50;5103961;28;1189;-78
2021/01/16 10:46:09;;;;;;;;;;;;;;;22.38;21.13;97414.72;5104595;28;1427;-79
2021/01/16 10:48:37;;;;;;;;;;;;;;;22.69;20.93;97423.22;5103856;28;1277;-78
2021/01/16 10:51:04;;;;;;;;;;;;;;;22.75;20.58;97413.66;5107496;28;1251;-79
2021/01/16 10:53:34;;;;;;;;;;;;;;;22.56;20.87;97409.16;5103047;28;1290;-78
2021/01/16 10:55:59;;;;;;;;;;;;;;;22.31;21.39;97405.25;5119936;28;1143;-78
2021/01/16 10:58:25;;;;;;;;;;;;;;;22.05;21.35;97407.44;5138518;27;1981;-78
2021/01/16 11:00:54;;;;;;;;;;;;;;;22.25;21.33;97401.44;5106272;28;1205;-78
2021/01/16 11:03:21;;;;;;;;;;;;;;;22.94;20.46;97410.88;5122311;28;1340;-78
2021/01/16 11:05:47;;;;;;;;;;;;;;;22.59;21.00;97409.03;5105528;28;1170;-78
2021/01/16 11:08:15;;;;;;;;;;;;;;;22.87;20.42;97406.28;5124294;28;1126;-78
2021/01/16 11:10:41;;;;;;;;;;;;;;;22.47;20.70;97394.94;5106174;28;1348;-78
2021/01/16 11:13:27;;;;;;;;;;;;;;;22.66;20.28;97388.09;5122787;28;1233;-78
2021/01/16 11:15:53;;;;;;;;;;;;;;;22.65;20.75;97389.34;5123610;28;1337;-78
2021/01/16 11:18:26;;;;;;;;;;;;;;;22.40;20.66;97379.00;5127429;28;1909;-78
2021/01/16 11:20:51;;;;;;;;;;;;;;;22.31;21.09;97376.91;5125141;27;1308;-79
2021/01/16 11:23:18;;;;;;;;;;;;;;;22.51;20.81;97384.25;5096588;28;1245;-78
2021/01/16 11:25:45;;;;;;;;;;;;;;;22.72;20.42;97376.91;5086201;28;1305;-78
2021/01/16 11:28:10;;;;;;;;;;;;;;;22.43;20.79;97374.44;5123908;28;1297;-77
2021/01/16 11:30:43;;;;;;;;;;;;;;;22.40;21.14;97370.50;5125736;28;1241;-78
2021/01/16 11:33:12;;;;;;;;;;;;;;;22.96;20.49;97363.00;5107225;28;1285;-78
2021/01/16 11:35:38;;;;;;;;;;;;;;;21.84;21.29;97362.91;5121870;28;1143;-78
2021/01/16 11:38:03;;;;;;;;;;;;;;;22.17;20.99;97371.00;5107892;28;1967;-78
2021/01/16 11:40:32;;;;;;;;;;;;;;;22.52;21.06;97371.63;5122938;28;1167;-78
2021/01/16 11:43:10;;;;;;;;;;;;;;;22.22;21.21;97364.72;5125710;28;1294;-78
2021/01/16 11:45:36;;;;;;;;;;;;;;;22.48;20.56;97359.66;5108597;28;1202;-78
2021/01/16 11:48:02;;;;;;;;;;;;;;;21.84;21.18;97363.72;5125962;28;1161;-78
2021/01/16 11:50:28;;;;;;;;;;;;;;;22.49;20.70;97352.75;5128381;27;1181;-78
2021/01/16 11:52:54;;;;;;;;;;;;;;;22.66;20.35;97351.22;5124314;28;1278;-78
2021/01/16 11:55:20;;;;;;;;;;;;;;;22.57;20.40;97354.03;5125023;28;1309;-78
2021/01/16 11:57:45;;;;;;;;;;;;;;;22.22;20.83;97357.00;5125134;28;1918;-78
2021/01/16 12:00:13;;;;;;;;;;;;;;;22.31;20.86;97353.44;5124079;28;1302;-77
2021/01/16 12:02:41;;;;;;;;;;;;;;;22.46;20.79;97359.34;5107275;28;1069;-78
2021/01/16 12:05:13;;;;;;;;;;;;;;;22.32;20.86;97358.63;5132931;27;1257;-79
2021/01/16 12:07:39;;;;;;;;;;;;;;;22.52;20.44;97357.47;5105290;28;1183;-79
2021/01/16 12:10:05;;;;;;;;;;;;;;;22.39;20.64;97346.25;5132615;27;1218;-78
2021/01/16 12:12:31;;;;;;;;;;;;;;;22.72;20.57;97355.00;5109312;28;746;-78
2021/01/16 12:14:57;;;;;;;;;;;;;;;22.31;20.86;97342.91;5126063;28;701;-78
2021/01/16 12:17:26;;;;;;;;;;;;;;;22.06;20.87;97331.72;5126615;28;1905;-79
2021/01/16 12:19:52;;;;;;;;;;;;;;;22.55;20.54;97328.19;5125679;28;709;-78
2021/01/16 12:22:21;;;;;;;;;;;;;;;22.21;20.86;97327.09;5107798;28;1080;-78
2021/01/16 12:24:55;;;;;;;;;;;;;;;22.21;20.92;97321.44;5125855;28;951;-78
2021/01/16 12:27:21;;;;;;;;;;;;;;;22.39;20.85;97317.91;5126601;28;657;-79
2021/01/16 12:29:47;;;;;;;;;;;;;;;22.30;20.83;97318.66;5126172;28;613;-79
2021/01/16 12:32:13;;;;;;;;;;;;;;;22.91;20.20;97321.06;5108676;28;638;-78
2021/01/16 12:34:44;;;;;;;;;;;;;;;22.25;20.71;97310.75;5125625;28;737;-78
2021/01/16 12:37:10;;;;;;;;;;;;;;;22.66;20.64;97317.19;5126024;28;1977;-79
2021/01/16 12:39:35;;;;;;;;;;;;;;;22.31;20.80;97313.75;5106685;28;933;-78
2021/01/16 12:42:01;;;;;;;;;;;;;;;22.63;20.58;97321.75;5108788;28;860;-79
2021/01/16 12:44:26;;;;;;;;;;;;;;;22.35;20.51;97320.88;5125216;28;590;-78
2021/01/16 12:46:55;;;;;;;;;;;;;;;22.30;20.67;97318.66;5125979;28;693;-78
2021/01/16 12:49:20;;;;;;;;;;;;;;;21.93;21.06;97311.22;5107229;28;694;-78
2021/01/16 12:51:47;;;;;;;;;;;;;;;22.20;20.85;97325.53;5107872;28;1108;-78
2021/01/16 12:54:15;;;;;;;;;;;;;;;22.51;20.58;97321.88;5107582;28;1077;-78
2021/01/16 12:56:41;;;;;;;;;;;;;;;22.09;21.04;97327.97;5125890;28;1893;-78
2021/01/16 12:59:06;;;;;;;;;;;;;;;22.58;20.30;97321.56;5125197;28;701;-78
2021/01/16 13:01:32;;;;;;;;;;;;;;;22.31;20.79;97325.09;5126122;28;622;-78